createdAt,value
2023-02-22T00:01:50.974Z,124.93
2023-02-22T00:04:21.040Z,51.38
2023-02-22T00:06:48.875Z,145.60
2023-02-22T00:09:20.404Z,73.13
2023-02-22T00:11:48.568Z,90.85
2023-02-22T00:14:15.044Z,55.40
2023-02-22T00:16:41.525Z,58.97
2023-02-22T00:19:08.618Z,57.47
2023-02-22T00:21:34.993Z,75.25
2023-02-22T00:24:16.909Z,91.88
2023-02-22T00:26:43.313Z,73.68
2023-02-22T00:29:09.659Z,66.20
2023-02-22T00:31:39.391Z,91.93
2023-02-22T00:34:05.853Z,82.68
2023-02-22T00:36:32.288Z,129.75
2023-02-22T00:38:58.649Z,66.30
2023-02-22T00:41:25.047Z,69.38
2023-02-22T00:43:51.404Z,75.63
2023-02-22T00:46:17.821Z,100.50
2023-02-22T00:48:44.472Z,84.60
2023-02-22T00:51:10.925Z,176.80
2023-02-22T00:53:37.395Z,104.53
2023-02-22T00:56:04.032Z,127.35
2023-02-22T00:58:30.459Z,251.20
2023-02-22T01:00:56.839Z,146.05
2023-02-22T01:03:23.265Z,59.53
2023-02-22T01:05:49.939Z,369.50
2023-02-22T01:08:17.444Z,149.90
2023-02-22T01:10:44.106Z,145.40
2023-02-22T01:13:12.484Z,158.02
2023-02-22T01:15:42.063Z,209.35
2023-02-22T01:18:09.511Z,147.00
2023-02-22T01:20:36.842Z,178.30
2023-02-22T01:23:06.655Z,158.43
2023-02-22T01:25:34.264Z,166.48
2023-02-22T01:28:01.989Z,110.93
2023-02-22T01:30:30.967Z,212.82
2023-02-22T01:32:57.987Z,133.75
2023-02-22T01:35:28.333Z,154.02
2023-02-22T01:37:55.369Z,129.43
2023-02-22T01:40:32.034Z,141.45
2023-02-22T01:43:02.909Z,126.53
2023-02-22T01:45:34.946Z,123.03
2023-02-22T01:48:04.261Z,123.47
2023-02-22T01:50:34.283Z,118.88
2023-02-22T01:53:02.090Z,153.10
2023-02-22T01:55:28.936Z,107.97
2023-02-22T01:57:55.353Z,152.75
2023-02-22T02:00:24.285Z,181.85
2023-02-22T02:03:02.643Z,119.05
2023-02-22T02:05:31.401Z,138.88
2023-02-22T02:07:59.419Z,192.68
2023-02-22T02:10:26.580Z,162.63
2023-02-22T02:12:53.872Z,197.18
2023-02-22T02:15:31.052Z,171.00
2023-02-22T02:18:10.346Z,220.50
2023-02-22T02:21:07.456Z,211.10
2023-02-22T02:24:05.819Z,135.70
2023-02-22T02:26:44.702Z,126.78
2023-02-22T02:29:47.219Z,116.00
2023-02-22T02:32:36.133Z,200.63
2023-02-22T02:35:11.634Z,139.40
2023-02-22T02:38:12.824Z,112.65
2023-02-22T02:40:47.311Z,110.70
2023-02-22T02:43:39.639Z,42.35
2023-02-22T02:46:25.239Z,105.90
2023-02-22T02:51:27.931Z,132.13
2023-02-22T02:53:55.757Z,118.72
2023-02-22T02:56:23.391Z,136.98
2023-02-22T02:58:52.776Z,78.93
2023-02-22T03:01:24.944Z,97.63
2023-02-22T03:04:05.817Z,122.15
2023-02-22T03:06:50.969Z,124.28
2023-02-22T03:09:35.738Z,123.15
2023-02-22T03:12:15.035Z,177.88
2023-02-22T03:14:55.774Z,131.38
2023-02-22T03:17:32.292Z,136.35
2023-02-22T03:20:06.218Z,132.48
2023-02-22T03:22:48.073Z,160.27
2023-02-22T03:25:20.881Z,173.70
2023-02-22T03:27:54.277Z,139.75
2023-02-22T03:30:37.516Z,111.22
2023-02-22T03:33:09.024Z,170.05
2023-02-22T03:35:44.248Z,104.95
2023-02-22T03:40:44.030Z,200.93
2023-02-22T03:43:15.971Z,103.45
2023-02-22T03:45:44.725Z,52.50
2023-02-22T03:48:20.622Z,121.28
2023-02-22T03:50:49.914Z,166.95
2023-02-22T03:53:18.589Z,177.77
2023-02-22T03:55:51.531Z,54.00
2023-02-22T03:58:20.586Z,208.55
2023-02-22T04:00:47.791Z,50.10
2023-02-22T04:03:14.181Z,153.25
2023-02-22T04:05:40.522Z,123.35
2023-02-22T04:08:06.954Z,170.07
2023-02-22T04:10:33.518Z,156.40
2023-02-22T04:12:59.952Z,101.90
2023-02-22T04:15:26.361Z,80.55
2023-02-22T04:17:52.771Z,128.82
2023-02-22T04:20:19.896Z,41.40
2023-02-22T04:22:47.214Z,85.00
2023-02-22T04:25:14.123Z,215.90
2023-02-22T04:27:40.486Z,79.55
2023-02-22T04:30:07.299Z,142.43
2023-02-22T04:32:33.684Z,112.35
2023-02-22T04:35:00.079Z,76.40
2023-02-22T04:37:26.506Z,100.80
2023-02-22T04:39:52.931Z,102.35
2023-02-22T04:42:19.345Z,107.15
2023-02-22T04:44:45.721Z,78.97
2023-02-22T04:47:12.196Z,85.75
2023-02-22T04:49:39.153Z,62.88
2023-02-22T04:52:05.611Z,81.90
2023-02-22T04:54:32.077Z,83.25
2023-02-22T04:56:58.394Z,78.47
2023-02-22T04:59:24.869Z,85.97
2023-02-22T05:01:51.297Z,40.83
2023-02-22T05:04:17.934Z,51.50
2023-02-22T05:06:44.295Z,69.30
2023-02-22T05:09:10.628Z,61.25
2023-02-22T05:11:37.009Z,72.88
2023-02-22T05:14:03.395Z,56.95
2023-02-22T05:16:29.846Z,64.68
2023-02-22T05:18:56.316Z,58.60
2023-02-22T05:21:22.676Z,45.97
2023-02-22T05:23:49.147Z,53.45
2023-02-22T05:26:15.568Z,44.55
2023-02-22T05:28:41.925Z,50.22
2023-02-22T05:31:08.947Z,40.42
2023-02-22T05:33:35.475Z,36.08
2023-02-22T05:36:02.149Z,34.40
2023-02-22T05:38:28.829Z,40.15
2023-02-22T05:40:55.278Z,33.33
2023-02-22T05:43:21.660Z,31.70
2023-02-22T05:45:48.008Z,30.80
2023-02-22T05:48:14.387Z,36.30
2023-02-22T05:50:40.736Z,33.83
2023-02-22T05:53:07.138Z,29.02
2023-02-22T05:55:33.455Z,30.48
2023-02-22T05:58:01.618Z,27.58
2023-02-22T06:00:30.755Z,26.90
2023-02-22T06:03:06.998Z,26.13
2023-02-22T06:05:33.488Z,26.35
2023-02-22T06:08:00.014Z,28.23
2023-02-22T06:10:27.290Z,28.30
2023-02-22T06:12:55.145Z,28.50
2023-02-22T06:15:23.280Z,26.13
2023-02-22T06:17:50.650Z,24.77
2023-02-22T06:20:20.532Z,29.20
2023-02-22T06:22:48.103Z,26.38
2023-02-22T06:25:16.454Z,26.90
2023-02-22T06:27:42.816Z,27.20
2023-02-22T06:30:13.343Z,28.63
2023-02-22T06:32:39.971Z,26.10
2023-02-22T06:35:06.823Z,30.13
2023-02-22T06:37:33.468Z,24.30
2023-02-22T06:40:04.842Z,23.73
2023-02-22T06:42:31.596Z,25.63
2023-02-22T06:44:58.039Z,27.75
2023-02-22T06:47:24.403Z,23.55
2023-02-22T06:49:58.344Z,25.55
2023-02-22T06:52:25.381Z,21.95
2023-02-22T06:54:51.879Z,22.52
2023-02-22T06:57:18.616Z,25.42
2023-02-22T06:59:45.396Z,26.08
2023-02-22T07:02:12.632Z,24.80
2023-02-22T07:04:41.711Z,24.77
2023-02-22T07:07:09.660Z,24.45
2023-02-22T07:09:36.071Z,23.30
2023-02-22T07:12:02.428Z,23.45
2023-02-22T07:14:28.824Z,22.77
2023-02-22T07:16:55.216Z,22.95
2023-02-22T07:19:21.555Z,22.45
2023-02-22T07:21:48.048Z,25.73
2023-02-22T07:24:14.462Z,22.92
2023-02-22T07:26:42.250Z,25.05
2023-02-22T07:29:08.697Z,22.63
2023-02-22T07:31:36.654Z,22.83
2023-02-22T07:34:03.045Z,24.60
2023-02-22T07:36:29.473Z,25.20
2023-02-22T07:38:55.867Z,24.73
2023-02-22T07:41:23.026Z,26.00
2023-02-22T07:43:49.402Z,29.70
2023-02-22T07:46:15.782Z,24.45
2023-02-22T07:48:42.132Z,26.15
2023-02-22T07:51:09.796Z,20.95
2023-02-22T07:53:36.437Z,25.08
2023-02-22T07:56:05.369Z,24.77
2023-02-22T07:58:32.645Z,22.38
2023-02-22T08:01:02.068Z,31.42
2023-02-22T08:03:36.447Z,24.20
2023-02-22T08:06:04.681Z,25.05
2023-02-22T08:08:31.100Z,25.38
2023-02-22T08:10:58.128Z,29.48
2023-02-22T08:13:24.568Z,22.38
2023-02-22T08:15:53.541Z,24.65
2023-02-22T08:18:21.892Z,22.55
2023-02-22T08:20:49.962Z,23.45
2023-02-22T08:23:17.830Z,20.63
2023-02-22T08:25:44.615Z,23.73
2023-02-22T08:28:13.760Z,20.60
2023-02-22T08:30:42.868Z,19.08
2023-02-22T08:33:10.921Z,21.15
2023-02-22T08:35:37.489Z,19.50
2023-02-22T08:38:06.557Z,22.45
2023-02-22T08:40:36.183Z,17.55
2023-02-22T08:43:04.376Z,20.08
2023-02-22T08:45:30.951Z,19.33
2023-02-22T08:47:58.320Z,21.38
2023-02-22T08:50:27.577Z,20.85
2023-02-22T08:52:56.088Z,21.05
2023-02-22T08:55:30.107Z,25.52
2023-02-22T08:57:56.446Z,17.95
2023-02-22T09:00:26.007Z,20.00
2023-02-22T09:02:53.085Z,17.65
2023-02-22T09:05:20.167Z,22.65
2023-02-22T09:07:47.882Z,17.48
2023-02-22T09:10:17.027Z,17.50
2023-02-22T09:12:43.742Z,17.42
2023-02-22T09:15:11.710Z,18.42
2023-02-22T09:17:38.641Z,18.52
2023-02-22T09:20:07.830Z,19.23
2023-02-22T09:22:34.649Z,17.02
2023-02-22T09:25:11.408Z,18.08
2023-02-22T09:27:43.554Z,18.63
2023-02-22T09:30:23.750Z,24.88
2023-02-22T09:32:53.131Z,19.80
2023-02-22T09:35:20.406Z,18.73
2023-02-22T09:37:46.854Z,22.08
2023-02-22T09:40:25.269Z,18.00
2023-02-22T09:42:56.434Z,20.48
2023-02-22T09:45:28.289Z,17.17
2023-02-22T09:48:15.159Z,19.05
2023-02-22T09:50:49.064Z,20.20
2023-02-22T09:53:17.773Z,18.23
2023-02-22T09:55:49.766Z,18.52
2023-02-22T09:58:25.229Z,22.58
2023-02-22T10:00:59.575Z,18.15
2023-02-22T10:03:50.663Z,20.42
2023-02-22T10:06:21.402Z,20.50
2023-02-22T10:08:50.048Z,16.40
2023-02-22T10:11:37.633Z,22.83
2023-02-22T10:14:27.861Z,17.55
2023-02-22T10:17:17.425Z,18.45
2023-02-22T10:19:43.806Z,18.95
2023-02-22T10:22:44.271Z,16.27
2023-02-22T10:25:17.856Z,15.27
2023-02-22T10:28:03.546Z,17.23
2023-02-22T10:30:34.329Z,17.05
2023-02-22T10:33:22.098Z,16.60
2023-02-22T10:35:51.509Z,13.02
2023-02-22T10:38:20.242Z,14.75
2023-02-22T10:40:54.895Z,12.07
2023-02-22T10:43:21.737Z,19.58
2023-02-22T10:45:48.285Z,13.23
2023-02-22T10:48:18.438Z,16.13
2023-02-22T10:50:46.449Z,16.05
2023-02-22T10:53:15.245Z,16.38
2023-02-22T10:56:32.692Z,15.38
2023-02-22T10:59:04.087Z,13.68
2023-02-22T11:01:33.231Z,12.63
2023-02-22T11:04:21.669Z,13.50
2023-02-22T11:07:06.421Z,13.23
2023-02-22T11:09:52.632Z,13.23
2023-02-22T11:12:29.576Z,14.73
2023-02-22T11:14:56.749Z,11.90
2023-02-22T11:17:31.042Z,11.60
2023-02-22T11:19:59.112Z,15.38
2023-02-22T11:22:38.512Z,13.50
2023-02-22T11:25:07.490Z,14.50
2023-02-22T11:27:43.757Z,10.50
2023-02-22T11:30:25.302Z,13.48
2023-02-22T11:33:00.630Z,11.20
2023-02-22T11:35:38.524Z,12.38
2023-02-22T11:38:23.488Z,12.23
2023-02-22T11:41:07.924Z,10.98
2023-02-22T11:43:34.549Z,13.95
2023-02-22T11:46:08.135Z,10.68
2023-02-22T11:48:39.076Z,12.77
2023-02-22T11:51:17.251Z,11.80
2023-02-22T11:53:54.337Z,9.98
2023-02-22T11:56:37.712Z,11.25
2023-02-22T11:59:21.146Z,10.68
2023-02-22T12:01:55.813Z,8.20
2023-02-22T12:04:43.971Z,11.15
2023-02-22T12:07:22.951Z,8.88
2023-02-22T12:10:13.221Z,13.10
2023-02-22T12:13:21.114Z,12.90
2023-02-22T12:15:52.859Z,10.25
2023-02-22T12:18:34.217Z,11.05
2023-02-22T12:21:05.565Z,10.77
2023-02-22T12:23:55.474Z,13.82
2023-02-22T12:26:31.012Z,12.70
2023-02-22T12:29:05.082Z,14.68
2023-02-22T12:31:40.498Z,10.65
2023-02-22T12:34:26.451Z,9.73
2023-02-22T12:37:27.692Z,9.77
2023-02-22T12:40:26.838Z,10.60
2023-02-22T12:42:56.183Z,11.35
2023-02-22T12:45:29.377Z,10.55
2023-02-22T12:48:21.508Z,12.10
2023-02-22T12:50:52.684Z,13.23
2023-02-22T12:53:30.052Z,12.10
2023-02-22T12:56:05.166Z,10.52
2023-02-22T12:58:49.362Z,11.82
2023-02-22T13:01:20.147Z,10.63
2023-02-22T13:03:47.221Z,13.48
2023-02-22T13:06:40.005Z,9.75
2023-02-22T13:09:18.583Z,11.85
2023-02-22T13:12:01.507Z,10.98
2023-02-22T13:14:57.363Z,12.45
2023-02-22T13:18:01.316Z,13.93
2023-02-22T13:20:40.650Z,10.20
2023-02-22T13:23:25.240Z,13.57
2023-02-22T13:25:59.150Z,13.18
2023-02-22T13:28:50.767Z,10.40
2023-02-22T13:31:42.242Z,11.40
2023-02-22T13:34:18.255Z,10.18
2023-02-22T13:37:12.630Z,14.23
2023-02-22T13:40:02.514Z,12.25
2023-02-22T13:42:49.818Z,17.13
2023-02-22T13:45:37.778Z,11.30
2023-02-22T13:48:32.597Z,12.90
2023-02-22T13:51:30.424Z,13.35
2023-02-22T13:54:07.677Z,14.00
2023-02-22T13:56:34.145Z,15.77
2023-02-22T13:59:03.832Z,16.08
2023-02-22T14:01:47.136Z,14.80
2023-02-22T14:04:21.288Z,11.73
2023-02-22T14:06:47.835Z,10.00
2023-02-22T14:09:50.452Z,13.80
2023-02-22T14:12:34.771Z,15.63
2023-02-22T14:15:18.734Z,11.38
2023-02-22T14:18:04.079Z,10.60
2023-02-22T14:20:35.233Z,11.27
2023-02-22T14:23:23.758Z,14.35
2023-02-22T14:25:51.427Z,14.02
2023-02-22T14:28:37.348Z,11.90
2023-02-22T14:31:19.653Z,11.80
2023-02-22T14:34:04.091Z,13.90
2023-02-22T14:36:50.831Z,14.27
2023-02-22T14:39:37.287Z,13.40
2023-02-22T14:42:15.657Z,12.10
2023-02-22T14:45:14.783Z,13.77
2023-02-22T14:48:03.923Z,11.63
2023-02-22T14:50:45.830Z,12.65
2023-02-22T14:53:12.148Z,15.07
2023-02-22T14:56:36.147Z,11.38
2023-02-22T14:59:13.161Z,14.10
2023-02-22T15:01:52.709Z,15.50
2023-02-22T15:04:28.428Z,16.05
2023-02-22T15:06:57.368Z,10.02
2023-02-22T15:09:36.529Z,12.50
2023-02-22T15:12:02.849Z,14.15
2023-02-22T15:14:37.697Z,14.80
2023-02-22T15:17:09.228Z,17.83
2023-02-22T15:19:40.709Z,14.68
2023-02-22T15:22:19.796Z,13.10
2023-02-22T15:24:58.698Z,14.45
2023-02-22T15:27:26.117Z,12.30
2023-02-22T15:29:59.489Z,11.07
2023-02-22T15:32:33.750Z,14.60
2023-02-22T15:35:17.119Z,13.73
2023-02-22T15:37:44.894Z,12.15
2023-02-22T15:40:21.798Z,16.10
2023-02-22T15:42:55.949Z,12.52
2023-02-22T15:45:25.135Z,13.93
2023-02-22T15:47:54.931Z,13.57
2023-02-22T15:50:26.044Z,14.98
2023-02-22T15:53:02.394Z,12.02
2023-02-22T15:55:34.106Z,12.27
2023-02-22T15:58:08.689Z,13.00
2023-02-22T16:00:37.990Z,12.70
2023-02-22T16:03:33.064Z,20.80
2023-02-22T16:05:59.897Z,17.00
2023-02-22T16:08:52.671Z,15.48
2023-02-22T16:11:29.946Z,15.52
2023-02-22T16:14:05.346Z,13.30
2023-02-22T16:16:37.137Z,20.02
2023-02-22T16:19:22.125Z,12.52
2023-02-22T16:21:54.072Z,12.35
2023-02-22T16:24:36.196Z,15.00
2023-02-22T16:27:10.694Z,13.88
2023-02-22T16:29:37.090Z,14.60
2023-02-22T16:32:03.997Z,16.75
2023-02-22T16:34:30.554Z,13.27
2023-02-22T16:36:57.846Z,13.10
2023-02-22T16:39:27.113Z,13.68
2023-02-22T16:41:56.273Z,13.50
2023-02-22T16:44:25.057Z,17.48
2023-02-22T16:46:57.642Z,16.48
2023-02-22T16:49:26.404Z,14.60
2023-02-22T16:51:55.972Z,15.35
2023-02-22T16:54:29.351Z,13.32
2023-02-22T16:56:57.515Z,14.73
2023-02-22T16:59:23.908Z,13.93
2023-02-22T17:01:50.266Z,15.55
2023-02-22T17:04:21.883Z,15.35
2023-02-22T17:06:48.862Z,14.55
2023-02-22T17:09:15.533Z,14.57
2023-02-22T17:11:43.180Z,16.15
2023-02-22T17:14:13.130Z,14.15
2023-02-22T17:16:39.471Z,18.35
2023-02-22T17:19:15.098Z,15.60
2023-02-22T17:21:41.552Z,14.40
2023-02-22T17:24:14.171Z,14.93
2023-02-22T17:26:41.304Z,19.42
2023-02-22T17:29:07.780Z,15.70
2023-02-22T17:31:34.866Z,18.38
2023-02-22T17:34:03.464Z,14.70
2023-02-22T17:36:31.072Z,16.77
2023-02-22T17:38:57.766Z,15.50
2023-02-22T17:41:24.195Z,23.52
2023-02-22T17:43:51.573Z,17.65
2023-02-22T17:46:20.856Z,18.42
2023-02-22T17:48:48.288Z,18.05
2023-02-22T17:51:14.634Z,16.70
2023-02-22T17:53:41.109Z,20.33
2023-02-22T17:56:10.404Z,17.52
2023-02-22T17:58:37.316Z,18.90
2023-02-22T18:01:04.441Z,16.10
2023-02-22T18:03:31.563Z,18.52
2023-02-22T18:06:00.679Z,17.20
2023-02-22T18:08:29.780Z,18.55
2023-02-22T18:10:56.603Z,21.58
2023-02-22T18:13:25.709Z,18.65
2023-02-22T18:15:52.579Z,18.33
2023-02-22T18:18:19.258Z,22.80
2023-02-22T18:20:47.089Z,18.05
2023-02-22T18:23:16.358Z,21.33
2023-02-22T18:26:07.750Z,23.50
2023-02-22T18:28:36.860Z,16.85
2023-02-22T18:31:15.465Z,16.30
2023-02-22T18:33:43.801Z,20.00
2023-02-22T18:36:14.052Z,21.08
2023-02-22T18:38:42.915Z,20.77
2023-02-22T18:41:11.849Z,19.20
2023-02-22T18:43:38.899Z,24.45
2023-02-22T18:46:11.127Z,17.45
2023-02-22T18:48:38.582Z,21.27
2023-02-22T18:51:07.838Z,22.55
2023-02-22T18:53:34.418Z,20.55
2023-02-22T18:56:12.001Z,21.77
2023-02-22T18:58:39.096Z,20.80
2023-02-22T19:01:07.313Z,26.52
2023-02-22T19:03:37.990Z,20.48
2023-02-22T19:06:08.612Z,22.63
2023-02-22T19:08:39.812Z,20.88
2023-02-22T19:11:12.139Z,21.67
2023-02-22T19:13:38.526Z,24.48
2023-02-22T19:16:07.337Z,25.65
2023-02-22T19:18:33.835Z,28.88
2023-02-22T19:21:02.963Z,19.83
2023-02-22T19:23:34.403Z,25.70
2023-02-22T19:26:03.126Z,26.38
2023-02-22T19:28:33.761Z,24.08
2023-02-22T19:31:21.438Z,24.35
2023-02-22T19:33:52.354Z,24.38
2023-02-22T19:36:20.177Z,24.65
2023-02-22T19:38:46.677Z,24.27
2023-02-22T19:41:22.474Z,23.90
2023-02-22T19:43:51.293Z,23.17
2023-02-22T19:46:18.578Z,24.42
2023-02-22T19:48:45.513Z,26.95
2023-02-22T19:51:14.250Z,26.05
2023-02-22T19:53:42.502Z,26.92
2023-02-22T19:56:16.043Z,26.08
2023-02-22T19:58:44.586Z,27.23
2023-02-22T20:01:16.441Z,25.67
2023-02-22T20:03:43.540Z,25.88
2023-02-22T20:06:11.484Z,26.02
2023-02-22T20:08:41.819Z,24.92
2023-02-22T20:11:10.474Z,29.63
2023-02-22T20:13:38.398Z,26.77
2023-02-22T20:16:05.261Z,28.02
2023-02-22T20:18:31.735Z,29.20
2023-02-22T20:20:58.131Z,26.35
2023-02-22T20:23:24.542Z,30.67
2023-02-22T20:25:55.239Z,28.95
2023-02-22T20:28:26.385Z,29.75
2023-02-22T20:30:52.786Z,32.92
2023-02-22T20:33:20.421Z,32.90
2023-02-22T20:35:47.654Z,30.42
2023-02-22T20:38:14.754Z,34.10
2023-02-22T20:40:42.280Z,34.25
2023-02-22T20:43:09.616Z,31.67
2023-02-22T20:45:39.486Z,35.78
2023-02-22T20:48:06.069Z,30.90
2023-02-22T20:50:34.994Z,34.22
2023-02-22T20:53:01.505Z,31.08
2023-02-22T20:55:27.875Z,30.25
2023-02-22T20:57:54.273Z,37.22
2023-02-22T21:00:20.704Z,31.45
2023-02-22T21:02:47.074Z,33.25
2023-02-22T21:05:13.766Z,32.05
2023-02-22T21:07:40.144Z,34.25
2023-02-22T21:10:06.992Z,39.08
2023-02-22T21:12:34.791Z,37.45
2023-02-22T21:15:01.198Z,36.28
2023-02-22T21:17:30.643Z,38.28
2023-02-22T21:19:58.118Z,34.97
2023-02-22T21:22:25.222Z,38.63
2023-02-22T21:24:51.903Z,35.50
2023-02-22T21:27:18.243Z,38.60
2023-02-22T21:29:44.595Z,38.22
2023-02-22T21:32:12.764Z,41.13
2023-02-22T21:34:39.683Z,40.30
2023-02-22T21:37:08.204Z,39.40
2023-02-22T21:39:35.237Z,40.17
2023-02-22T21:42:02.390Z,40.85
2023-02-22T21:44:29.842Z,39.35
2023-02-22T21:46:56.326Z,37.60
2023-02-22T21:49:23.179Z,39.35
2023-02-22T21:51:51.502Z,39.42
2023-02-22T21:54:18.267Z,44.30
2023-02-22T21:56:44.719Z,43.70
2023-02-22T21:59:13.722Z,38.65
2023-02-22T22:01:58.363Z,41.83
2023-02-22T22:04:29.610Z,43.95
2023-02-22T22:06:58.434Z,40.88
2023-02-22T22:09:28.942Z,42.30
2023-02-22T22:11:58.272Z,38.83
2023-02-22T22:14:26.004Z,37.22
2023-02-22T22:16:58.096Z,39.40
2023-02-22T22:19:25.829Z,43.08
2023-02-22T22:21:53.887Z,44.35
2023-02-22T22:24:22.606Z,42.70
2023-02-22T22:26:54.679Z,42.67
2023-02-22T22:29:23.683Z,42.55
2023-02-22T22:31:51.388Z,42.78
2023-02-22T22:34:18.127Z,45.28
2023-02-22T22:36:44.465Z,42.03
2023-02-22T22:39:13.821Z,44.95
2023-02-22T22:41:42.155Z,44.72
2023-02-22T22:44:09.877Z,42.42
2023-02-22T22:46:39.596Z,43.03
2023-02-22T22:49:11.340Z,47.70
2023-02-22T22:51:38.358Z,41.30
2023-02-22T22:54:09.287Z,44.20
2023-02-22T22:56:37.767Z,43.75
2023-02-22T22:59:09.531Z,46.53
2023-02-22T23:01:40.419Z,46.00
2023-02-22T23:04:11.748Z,49.92
2023-02-22T23:06:41.770Z,45.80
2023-02-22T23:09:18.712Z,49.92
2023-02-22T23:11:51.172Z,47.67
2023-02-22T23:14:23.996Z,46.58
2023-02-22T23:16:53.216Z,47.83
2023-02-22T23:19:20.181Z,45.08
2023-02-22T23:21:48.344Z,52.47
2023-02-22T23:24:16.485Z,46.65
2023-02-22T23:26:50.390Z,48.83
2023-02-22T23:29:19.822Z,47.40
2023-02-22T23:31:48.331Z,51.20
2023-02-22T23:34:17.008Z,50.88
2023-02-22T23:36:46.712Z,48.08
2023-02-22T23:39:15.117Z,46.15
2023-02-22T23:41:42.414Z,54.58
2023-02-22T23:44:17.370Z,53.55
2023-02-22T23:46:47.500Z,54.67
2023-02-22T23:49:19.872Z,52.10
2023-02-22T23:51:47.010Z,58.90
2023-02-22T23:54:19.080Z,54.90
2023-02-22T23:56:58.607Z,54.50
2023-02-22T23:59:26.851Z,52.28
